Time;durP1;ratioP1;P1;durP2;ratioP2;P2;SDS_P1;SDS_P2;PMS_P1;PMS_P2;Temp;Humidity;BMP_temperature;BMP_pressure;BME280_temperature;BME280_humidity;BME280_pressure;Samples;Min_cycle;Max_cycle;Signal;HPM_P1;HPM_P2
2023/09/19 00:00:58;;;;;;;91.10;86.90;;;;;;;22.92;49.93;100676.34;5012230;28;20050;-72
2023/09/19 00:03:25;;;;;;;90.43;86.28;;;;;;;22.90;50.04;100682.16;5010276;28;20500;-73
2023/09/19 00:05:50;;;;;;;92.47;87.97;;;;;;;22.89;50.03;100675.84;5010644;28;20088;-73
2023/09/19 00:08:16;;;;;;;88.07;84.28;;;;;;;22.87;50.32;100683.63;5007254;28;20033;-73
2023/09/19 00:10:42;;;;;;;90.93;86.47;;;;;;;22.86;50.24;100684.78;5014162;28;20069;-73
2023/09/19 00:13:12;;;;;;;87.97;84.03;;;;;;;22.85;50.17;100693.34;5016719;28;20037;-70
2023/09/19 00:15:48;;;;;;;91.30;86.32;;;;;;;22.84;50.03;100691.75;5006842;28;20037;-75
2023/09/19 00:18:15;;;;;;;87.85;83.72;;;;;;;22.83;50.01;100701.13;5014266;28;20060;-72
2023/09/19 00:20:41;;;;;;;88.82;84.63;;;;;;;22.81;50.22;100707.00;5007366;28;20053;-72
2023/09/19 00:23:10;;;;;;;89.97;85.80;;;;;;;22.79;50.05;100692.72;5011500;28;20038;-76
2023/09/19 00:25:37;;;;;;;93.93;89.63;;;;;;;22.79;50.02;100705.69;5008791;28;20037;-72
2023/09/19 00:28:04;;;;;;;91.80;87.40;;;;;;;22.77;49.78;100711.53;5008223;28;20180;-71
2023/09/19 00:30:30;;;;;;;89.07;84.95;;;;;;;22.75;49.99;100705.53;5009655;28;20452;-71
2023/09/19 00:32:55;;;;;;;87.90;83.90;;;;;;;22.74;50.05;100714.94;5015537;28;20038;-72
2023/09/19 00:35:24;;;;;;;90.15;85.95;;;;;;;22.73;50.14;100724.34;5013155;28;20433;-74
2023/09/19 00:37:50;;;;;;;88.93;84.38;;;;;;;22.72;50.23;100722.69;5008845;28;20030;-72
2023/09/19 00:40:15;;;;;;;87.70;83.70;;;;;;;22.71;50.21;100720.28;5010941;28;20053;-72
2023/09/19 00:42:45;;;;;;;91.38;86.85;;;;;;;22.69;49.97;100724.16;5007318;28;20044;-72
2023/09/19 00:45:13;;;;;;;91.07;86.95;;;;;;;22.68;50.21;100736.31;4993427;28;20030;-70
2023/09/19 00:47:49;;;;;;;91.30;86.88;;;;;;;22.66;50.20;100735.03;5001357;28;20034;-73
2023/09/19 00:50:19;;;;;;;87.88;83.68;;;;;;;22.65;49.99;100741.66;5015003;28;20492;-71
2023/09/19 00:52:46;;;;;;;89.22;85.03;;;;;;;22.63;50.27;100741.19;5006750;28;20600;-72
2023/09/19 00:55:14;;;;;;;89.35;85.35;;;;;;;22.61;49.77;100752.50;5012121;28;20079;-72
2023/09/19 00:57:40;;;;;;;89.18;84.78;;;;;;;22.60;49.68;100748.16;5004940;28;20433;-72
2023/09/19 01:00:15;;;;;;;87.82;83.88;;;;;;;22.60;49.82;100758.31;5011204;28;20109;-73
2023/09/19 01:02:42;;;;;;;89.00;85.00;;;;;;;22.57;49.78;100758.97;5012809;28;20060;-72
2023/09/19 01:05:08;;;;;;;87.20;83.10;;;;;;;22.57;49.84;100761.72;5014243;28;20041;-71
2023/09/19 01:07:34;;;;;;;85.43;81.43;;;;;;;22.54;50.09;100763.19;5012058;28;20068;-72
2023/09/19 01:10:00;;;;;;;88.45;84.35;;;;;;;22.54;49.76;100754.13;5008857;28;20046;-72
2023/09/19 01:13:05;;;;;;;87.40;83.22;;;;;;;22.49;49.95;100760.59;5009500;28;20057;-75
2023/09/19 01:15:52;;;;;;;85.28;81.35;;;;;;;22.49;49.98;100762.53;5013644;28;20071;-71
2023/09/19 01:18:35;;;;;;;83.03;79.32;;;;;;;22.44;49.86;100752.50;5009988;28;20463;-72
2023/09/19 01:21:06;;;;;;;88.38;84.15;;;;;;;22.43;49.87;100762.69;5002832;28;20095;-76
2023/09/19 01:23:53;;;;;;;86.10;82.00;;;;;;;22.41;49.71;100764.16;5010893;28;20041;-73
2023/09/19 01:26:37;;;;;;;87.07;82.95;;;;;;;22.39;49.73;100760.91;5010617;28;20030;-73
2023/09/19 01:29:34;;;;;;;84.95;81.07;;;;;;;22.36;49.96;100765.13;5004613;28;20030;-72
2023/09/19 01:32:04;;;;;;;83.15;79.45;;;;;;;22.36;49.62;100776.13;5004551;28;20398;-71
2023/09/19 01:34:57;;;;;;;82.90;79.10;;;;;;;22.32;49.87;100780.63;5008993;28;20042;-73
2023/09/19 01:37:26;;;;;;;83.57;79.88;;;;;;;22.32;49.66;100783.38;5007356;28;20045;-71
2023/09/19 01:40:05;;;;;;;83.72;79.82;;;;;;;22.31;49.75;100770.78;5007924;28;20172;-71
2023/09/19 01:42:46;;;;;;;83.72;79.93;;;;;;;22.30;49.97;100776.59;5004292;28;20116;-72
2023/09/19 01:45:33;;;;;;;86.72;82.72;;;;;;;22.28;50.21;100776.13;5014067;28;20406;-72
2023/09/19 01:48:15;;;;;;;85.43;81.25;;;;;;;22.24;50.10;100774.00;5007687;28;20061;-71
2023/09/19 01:50:58;;;;;;;87.03;82.90;;;;;;;22.23;49.59;100779.84;5014599;28;20032;-73
2023/09/19 01:53:30;;;;;;;81.68;77.43;;;;;;;22.22;50.06;100776.25;5005534;28;20057;-71
2023/09/19 01:55:57;;;;;;;84.78;80.88;;;;;;;22.22;50.12;100778.19;5016597;28;20104;-72
2023/09/19 01:58:42;;;;;;;87.63;83.53;;;;;;;22.20;49.83;100777.69;5013302;28;20046;-73
2023/09/19 02:01:12;;;;;;;84.05;80.25;;;;;;;22.19;49.62;100779.66;5016012;28;20049;-72
2023/09/19 02:03:39;;;;;;;83.53;79.72;;;;;;;22.18;49.63;100771.69;5008470;28;20034;-72
2023/09/19 02:06:05;;;;;;;84.72;80.65;;;;;;;22.18;50.15;100782.69;5006133;28;20482;-71
2023/09/19 02:08:33;;;;;;;85.35;81.55;;;;;;;22.16;49.29;100777.50;5011938;28;20041;-76
2023/09/19 02:10:59;;;;;;;82.10;78.38;;;;;;;22.14;49.96;100779.75;5013680;28;20036;-71
2023/09/19 02:13:25;;;;;;;86.75;82.85;;;;;;;22.13;49.65;100777.34;5008069;28;20426;-72
2023/09/19 02:15:51;;;;;;;85.75;81.75;;;;;;;22.13;49.54;100780.09;5010662;28;20037;-72
2023/09/19 02:18:16;;;;;;;83.40;79.43;;;;;;;22.11;49.43;100785.09;5012649;28;20096;-72
2023/09/19 02:20:42;;;;;;;85.35;81.43;;;;;;;22.10;49.57;100780.72;5013983;28;20470;-71
2023/09/19 02:23:10;;;;;;;81.88;78.18;;;;;;;22.09;49.51;100790.13;5011891;28;20042;-71
2023/09/19 02:25:35;;;;;;;86.10;82.07;;;;;;;22.07;49.46;100781.38;5008389;28;20487;-72
2023/09/19 02:28:03;;;;;;;81.63;77.60;;;;;;;22.04;49.52;100783.63;5009230;28;20038;-72
2023/09/19 02:30:29;;;;;;;84.10;80.23;;;;;;;22.03;49.59;100782.00;5000551;28;20494;-71
2023/09/19 02:32:54;;;;;;;83.55;79.45;;;;;;;22.02;49.72;100779.56;5009965;28;20450;-71
2023/09/19 02:35:20;;;;;;;84.43;80.25;;;;;;;21.99;49.66;100778.25;5009119;28;20034;-73
2023/09/19 02:37:46;;;;;;;83.53;79.30;;;;;;;21.99;49.37;100780.22;5008042;28;20034;-72
2023/09/19 02:40:25;;;;;;;84.28;80.35;;;;;;;21.97;49.36;100782.47;5013544;28;20045;-72
2023/09/19 02:42:54;;;;;;;83.85;79.90;;;;;;;21.96;49.77;100789.09;5009641;28;20124;-71
2023/09/19 02:45:20;;;;;;;81.07;77.28;;;;;;;21.94;49.59;100780.34;5006589;28;20062;-73
2023/09/19 02:47:47;;;;;;;82.57;78.65;;;;;;;21.93;49.48;100781.50;5004546;28;20076;-74
2023/09/19 02:50:15;;;;;;;83.97;80.28;;;;;;;21.92;49.25;100786.16;5014477;28;20034;-72
2023/09/19 02:52:47;;;;;;;82.45;78.45;;;;;;;21.89;49.50;100784.06;5006486;28;20193;-71
2023/09/19 02:55:17;;;;;;;82.75;78.55;;;;;;;21.89;49.45;100786.00;5008445;28;20056;-73
2023/09/19 02:57:46;;;;;;;82.18;78.28;;;;;;;21.88;49.35;100784.38;5008588;28;20079;-72
2023/09/19 03:00:12;;;;;;;81.60;77.90;;;;;;;21.86;49.52;100783.88;5010201;28;20131;-72
2023/09/19 03:02:39;;;;;;;82.13;78.30;;;;;;;21.84;49.77;100786.94;5009872;28;20103;-75
2023/09/19 03:05:07;;;;;;;81.53;77.93;;;;;;;21.83;49.31;100780.66;5011731;28;20037;-73
2023/09/19 03:07:32;;;;;;;82.67;78.60;;;;;;;21.80;49.44;100781.28;5005913;28;20413;-74
2023/09/19 03:09:57;;;;;;;81.97;77.85;;;;;;;21.79;49.80;100787.09;5009228;28;20034;-72
2023/09/19 03:12:23;;;;;;;79.25;75.65;;;;;;;21.78;49.35;100791.78;5010780;28;20113;-74
2023/09/19 03:14:50;;;;;;;82.78;78.97;;;;;;;21.76;49.37;100791.28;5010870;28;20030;-73
2023/09/19 03:17:15;;;;;;;80.05;76.05;;;;;;;21.75;49.20;100797.13;5007593;28;20045;-73
2023/09/19 03:19:41;;;;;;;81.50;77.78;;;;;;;21.74;49.37;100796.28;5005860;28;20468;-70
2023/09/19 03:22:07;;;;;;;81.15;77.45;;;;;;;21.72;49.20;100797.72;5008274;28;20034;-72
2023/09/19 03:24:34;;;;;;;79.50;75.93;;;;;;;21.71;49.67;100796.13;5009951;28;20042;-72
2023/09/19 03:27:00;;;;;;;80.43;76.60;;;;;;;21.69;49.30;100801.13;5005259;28;20046;-72
2023/09/19 03:29:26;;;;;;;81.55;77.75;;;;;;;21.68;49.21;100788.50;5007552;28;20087;-71
2023/09/19 03:31:53;;;;;;;81.05;77.25;;;;;;;21.67;49.17;100795.13;5002690;28;20060;-74
2023/09/19 03:34:19;;;;;;;79.47;75.82;;;;;;;21.65;49.33;100794.66;5008450;28;20402;-71
2023/09/19 03:36:45;;;;;;;84.32;80.22;;;;;;;21.63;49.61;100794.94;5010089;28;20034;-73
2023/09/19 03:39:10;;;;;;;80.50;76.82;;;;;;;21.61;49.29;100795.25;5005215;28;20038;-72
2023/09/19 03:41:36;;;;;;;79.85;76.25;;;;;;;21.60;49.62;100796.41;5016244;28;20034;-73
2023/09/19 03:44:02;;;;;;;77.25;73.75;;;;;;;21.59;49.10;100789.25;5007960;28;20048;-72
2023/09/19 03:46:28;;;;;;;80.03;76.43;;;;;;;21.57;49.68;100791.53;5011396;28;20478;-71
2023/09/19 03:48:54;;;;;;;81.38;77.43;;;;;;;21.56;49.19;100789.09;5002962;28;20045;-71
2023/09/19 03:51:20;;;;;;;80.80;77.20;;;;;;;21.55;49.08;100795.72;5013578;28;20363;-72
2023/09/19 03:53:45;;;;;;;79.70;76.05;;;;;;;21.53;49.62;100790.53;5011179;28;20493;-72
2023/09/19 03:56:11;;;;;;;79.15;75.43;;;;;;;21.52;49.07;100790.84;5016451;28;20394;-72
2023/09/19 03:58:39;;;;;;;81.32;77.63;;;;;;;21.51;49.46;100787.28;5008738;28;20061;-72
2023/09/19 04:01:06;;;;;;;76.80;73.28;;;;;;;21.48;49.55;100776.13;5005669;28;20053;-71
2023/09/19 04:03:45;;;;;;;80.68;76.88;;;;;;;21.47;49.06;100789.06;5015471;28;20033;-73
2023/09/19 04:06:11;;;;;;;78.03;74.22;;;;;;;21.45;49.20;100777.56;5013479;28;20045;-72
2023/09/19 04:08:37;;;;;;;81.43;77.53;;;;;;;21.44;49.11;100781.41;5013826;28;20033;-78
2023/09/19 04:11:02;;;;;;;80.78;76.88;;;;;;;21.42;49.52;100786.44;5005483;28;20038;-72
2023/09/19 04:13:28;;;;;;;80.25;76.47;;;;;;;21.42;49.21;100782.84;5014319;28;20107;-73
2023/09/19 04:15:53;;;;;;;78.32;74.72;;;;;;;21.39;49.48;100798.88;5014405;28;20064;-72
2023/09/19 04:18:20;;;;;;;77.00;73.40;;;;;;;21.39;49.06;100803.53;5014140;28;20064;-72
2023/09/19 04:20:52;;;;;;;78.75;75.25;;;;;;;21.37;49.50;100806.59;5008004;28;20104;-73
2023/09/19 04:23:21;;;;;;;74.00;70.70;;;;;;;21.36;48.99;100809.63;5009574;28;20037;-71
2023/09/19 04:25:46;;;;;;;80.93;77.13;;;;;;;21.34;49.50;100809.13;5018216;28;20200;-73
2023/09/19 04:28:12;;;;;;;76.03;72.32;;;;;;;21.33;49.00;100816.56;5011779;28;20870;-72
2023/09/19 04:30:40;;;;;;;77.72;74.13;;;;;;;21.33;49.53;100826.75;5008681;28;20045;-71
2023/09/19 04:33:06;;;;;;;77.45;73.60;;;;;;;21.30;49.37;100819.94;5009060;28;20037;-72
2023/09/19 04:35:31;;;;;;;77.82;74.25;;;;;;;21.30;49.05;100832.88;5012289;28;20034;-71
2023/09/19 04:37:57;;;;;;;79.85;76.05;;;;;;;21.28;49.58;100835.94;5009420;28;20048;-72
2023/09/19 04:40:24;;;;;;;76.43;72.50;;;;;;;21.28;49.46;100844.16;5012917;28;20030;-72
2023/09/19 04:42:56;;;;;;;76.85;73.05;;;;;;;21.27;49.07;100844.47;5010821;28;20033;-72
2023/09/19 04:45:29;;;;;;;77.03;73.53;;;;;;;21.25;49.35;100853.03;5014968;28;20037;-72
2023/09/19 04:47:54;;;;;;;79.60;75.85;;;;;;;21.24;49.31;100847.84;5005893;28;20129;-72
2023/09/19 04:50:24;;;;;;;77.20;73.75;;;;;;;21.23;49.32;100857.22;5007118;28;20030;-75
2023/09/19 04:52:50;;;;;;;78.13;74.10;;;;;;;21.22;49.40;100853.69;5004391;28;20399;-72
2023/09/19 04:55:20;;;;;;;77.68;73.90;;;;;;;21.21;49.53;100857.53;5010007;28;20492;-71
2023/09/19 04:57:50;;;;;;;80.00;76.22;;;;;;;21.20;48.83;100855.09;5012808;28;20475;-76
2023/09/19 05:00:18;;;;;;;77.78;73.97;;;;;;;21.18;48.95;100856.22;5011796;28;20060;-72
2023/09/19 05:02:44;;;;;;;74.43;71.15;;;;;;;21.16;48.98;100854.91;5014677;28;20026;-72
2023/09/19 05:05:11;;;;;;;75.70;72.18;;;;;;;21.16;48.97;100857.66;4998768;28;20074;-76
2023/09/19 05:07:37;;;;;;;74.65;71.15;;;;;;;21.14;49.26;100852.47;5012022;28;20603;-72
2023/09/19 05:10:05;;;;;;;78.53;74.47;;;;;;;21.13;49.06;100853.59;5025353;28;20525;-71
2023/09/19 05:12:32;;;;;;;75.28;71.53;;;;;;;21.12;49.01;100849.22;5007903;28;20057;-71
2023/09/19 05:14:58;;;;;;;75.32;71.82;;;;;;;21.11;49.00;100853.09;5011708;28;20092;-72
2023/09/19 05:17:24;;;;;;;74.38;70.97;;;;;;;21.10;49.05;100856.16;5013129;28;20465;-72
2023/09/19 05:19:50;;;;;;;74.93;71.53;;;;;;;21.09;49.08;100860.00;5018964;28;20034;-73
2023/09/19 05:22:15;;;;;;;74.32;70.72;;;;;;;21.08;49.61;100861.94;5019232;28;20429;-71
2023/09/19 05:24:40;;;;;;;73.38;69.78;;;;;;;21.07;48.96;100865.84;5012491;28;20155;-72
2023/09/19 05:27:07;;;;;;;79.90;75.93;;;;;;;21.05;49.08;100862.56;5016583;28;20034;-71
2023/09/19 05:29:33;;;;;;;75.70;72.10;;;;;;;21.05;49.09;100856.28;5001285;28;20042;-71
2023/09/19 05:31:59;;;;;;;78.93;75.05;;;;;;;21.04;49.48;100866.47;5025276;28;20085;-72
2023/09/19 05:34:25;;;;;;;75.38;71.88;;;;;;;21.03;49.48;100864.81;5013472;28;20065;-72
2023/09/19 05:36:51;;;;;;;75.75;72.15;;;;;;;21.02;49.05;100862.41;5009076;28;20125;-73
2023/09/19 05:39:17;;;;;;;75.22;71.60;;;;;;;21.01;49.39;100867.06;4998569;28;20104;-73
2023/09/19 05:44:18;;;;;;;79.07;75.00;;;;;;;20.99;49.19;100857.50;5936044;22;21093;-71
2023/09/19 05:46:45;;;;;;;74.88;71.40;;;;;;;20.98;49.17;100859.44;4973371;28;20053;-72
2023/09/19 05:49:10;;;;;;;74.40;70.82;;;;;;;20.96;49.47;100856.19;4952943;28;20043;-72
2023/09/19 05:51:35;;;;;;;74.15;70.65;;;;;;;20.96;49.26;100864.44;4966919;28;20046;-72
2023/09/19 05:54:01;;;;;;;72.63;69.20;;;;;;;20.94;49.55;100862.00;4969456;28;20043;-73
2023/09/19 05:56:27;;;;;;;74.13;70.35;;;;;;;20.94;49.13;100859.25;4963747;28;20123;-74
2023/09/19 05:58:53;;;;;;;75.53;72.03;;;;;;;20.93;49.14;100863.13;4958693;28;20479;-72
2023/09/19 06:01:19;;;;;;;75.47;71.68;;;;;;;20.92;49.51;100856.00;4957203;28;20051;-74
2023/09/19 06:03:44;;;;;;;72.28;68.88;;;;;;;20.90;49.21;100855.50;4960938;28;20087;-71
2023/09/19 06:06:10;;;;;;;76.38;72.60;;;;;;;20.89;49.19;100859.38;4964221;28;20049;-75
2023/09/19 06:08:35;;;;;;;74.65;71.20;;;;;;;20.89;49.02;100862.13;4971470;28;20035;-72
2023/09/19 06:11:00;;;;;;;73.35;69.70;;;;;;;20.89;49.04;100861.28;4961751;28;20101;-73
2023/09/19 06:13:29;;;;;;;75.60;71.90;;;;;;;20.88;49.31;100862.41;4954112;28;20090;-71
2023/09/19 06:15:56;;;;;;;71.82;68.32;;;;;;;20.87;49.62;100869.06;4957437;28;20043;-72
2023/09/19 06:18:25;;;;;;;73.30;69.90;;;;;;;20.86;49.22;100864.66;4963179;28;20105;-72
2023/09/19 06:20:51;;;;;;;74.15;70.78;;;;;;;20.85;49.34;100874.84;4970284;28;20027;-71
2023/09/19 06:23:17;;;;;;;72.85;69.50;;;;;;;20.83;49.30;100870.78;4962047;28;20089;-71
2023/09/19 06:25:43;;;;;;;72.43;68.93;;;;;;;20.83;49.11;100881.75;4969945;28;20035;-75
2023/09/19 06:28:12;;;;;;;75.47;71.70;;;;;;;20.83;49.51;100879.00;4970590;28;20120;-72
2023/09/19 06:30:39;;;;;;;71.63;68.13;;;;;;;20.82;49.39;100896.63;4969940;28;20126;-72
2023/09/19 06:33:06;;;;;;;71.57;68.10;;;;;;;20.80;49.23;100893.34;4966659;28;20035;-72
2023/09/19 06:35:33;;;;;;;72.97;69.68;;;;;;;20.80;49.78;100891.41;4964367;28;20575;-74
2023/09/19 06:38:02;;;;;;;72.65;69.03;;;;;;;20.79;49.45;100888.97;4966230;28;20042;-73
2023/09/19 06:40:28;;;;;;;76.68;72.97;;;;;;;20.79;49.53;100903.53;4967612;28;20442;-74
2023/09/19 06:42:54;;;;;;;73.63;70.22;;;;;;;20.77;49.24;100892.03;4969284;28;20054;-72
2023/09/19 06:45:21;;;;;;;74.28;70.40;;;;;;;20.77;49.64;100902.22;4967569;28;20402;-73
2023/09/19 06:47:50;;;;;;;73.22;69.82;;;;;;;20.78;49.18;100903.84;4962544;28;20047;-73
2023/09/19 06:50:22;;;;;;;74.82;71.22;;;;;;;20.77;49.55;100902.22;4964754;28;20442;-72
2023/09/19 06:52:51;;;;;;;74.43;70.57;;;;;;;20.74;49.27;100903.66;4955858;28;20090;-75
2023/09/19 06:55:19;;;;;;;74.35;69.95;;;;;;;20.74;49.62;100907.19;4969107;28;20077;-74
2023/09/19 06:57:45;;;;;;;70.60;67.00;;;;;;;20.72;49.67;100901.19;4968090;28;20050;-73
2023/09/19 07:00:18;;;;;;;71.95;68.45;;;;;;;20.73;49.53;100888.28;4967590;28;20030;-71
2023/09/19 07:02:44;;;;;;;72.65;69.25;;;;;;;20.71;49.19;100894.09;4970366;28;20130;-74
2023/09/19 07:05:10;;;;;;;70.63;67.32;;;;;;;20.72;49.30;100903.13;4963547;28;20557;-72
2023/09/19 07:07:35;;;;;;;73.10;69.70;;;;;;;20.70;49.62;100899.88;4962766;28;20042;-71
2023/09/19 07:10:02;;;;;;;75.85;72.10;;;;;;;20.70;49.59;100905.38;4963520;28;20481;-72
2023/09/19 07:12:27;;;;;;;73.75;70.15;;;;;;;20.70;49.77;100908.91;4970151;28;20035;-72
2023/09/19 07:14:53;;;;;;;72.07;68.28;;;;;;;20.69;49.76;100912.00;4968162;28;20094;-71
2023/09/19 07:17:18;;;;;;;72.45;68.72;;;;;;;20.67;49.57;100906.78;4967240;28;20039;-71
2023/09/19 07:19:45;;;;;;;74.13;70.57;;;;;;;20.67;49.48;100904.06;4971010;28;20035;-72
2023/09/19 07:22:10;;;;;;;71.97;68.38;;;;;;;20.67;49.50;100895.00;4971719;28;20035;-72
2023/09/19 07:24:36;;;;;;;74.15;70.57;;;;;;;20.66;49.84;100888.72;4963064;28;20039;-72
2023/09/19 07:27:02;;;;;;;71.65;68.20;;;;;;;20.65;49.47;100892.56;4960187;28;20494;-73
2023/09/19 07:29:28;;;;;;;74.72;70.82;;;;;;;20.65;49.33;100887.06;4962980;28;20074;-72
2023/09/19 07:31:53;;;;;;;70.22;67.05;;;;;;;20.65;49.72;100898.06;4960329;28;20109;-72
2023/09/19 07:34:21;;;;;;;71.00;67.70;;;;;;;20.64;49.82;100896.44;4965069;28;20114;-73
2023/09/19 07:36:47;;;;;;;85.35;80.93;;;;;;;20.66;49.51;100894.19;4968175;28;20078;-72
2023/09/19 07:39:13;;;;;;;88.30;84.28;;;;;;;20.67;49.41;100900.50;4962016;28;20174;-72
2023/09/19 07:41:38;;;;;;;88.40;83.97;;;;;;;20.67;49.39;100906.00;4956987;28;20478;-72
2023/09/19 07:44:04;;;;;;;84.70;80.90;;;;;;;20.66;49.41;100910.66;4959603;28;20116;-72
2023/09/19 07:46:31;;;;;;;87.47;83.28;;;;;;;20.66;49.48;100910.66;4948472;28;20043;-72
2023/09/19 07:48:57;;;;;;;84.95;80.95;;;;;;;20.67;49.71;100897.75;4953193;28;20047;-73
2023/09/19 07:51:23;;;;;;;86.07;80.95;;;;;;;20.82;49.42;100899.38;4963783;28;20106;-77
2023/09/19 07:53:48;;;;;;;84.68;80.88;;;;;;;20.87;49.23;100907.50;4971750;28;20158;-75
2023/09/19 07:56:14;;;;;;;84.38;80.45;;;;;;;20.87;48.92;100905.53;4972661;28;20112;-78
2023/09/19 07:58:43;;;;;;;87.03;82.30;;;;;;;20.88;49.20;100904.41;4971524;28;20027;-79
2023/09/19 08:01:10;;;;;;;83.40;79.53;;;;;;;20.88;49.27;100907.16;4971058;28;20101;-78
2023/09/19 08:03:43;;;;;;;89.28;85.07;;;;;;;20.88;49.13;100906.34;4972738;28;20038;-77
2023/09/19 08:06:08;;;;;;;84.28;80.10;;;;;;;20.87;49.35;100915.72;4986904;28;20479;-75
2023/09/19 08:08:37;;;;;;;87.22;83.20;;;;;;;20.87;49.05;100916.53;4966571;28;20035;-76
2023/09/19 08:11:12;;;;;;;87.78;83.45;;;;;;;20.87;49.32;100915.72;4972786;28;20189;-74
2023/09/19 08:13:43;;;;;;;84.28;80.28;;;;;;;20.87;49.42;100918.47;4971940;28;20038;-76
2023/09/19 08:16:14;;;;;;;84.30;80.10;;;;;;;20.86;49.40;100923.13;4970823;28;20038;-75
2023/09/19 08:18:40;;;;;;;84.45;80.35;;;;;;;20.86;49.13;100905.84;4938861;28;20066;-74
2023/09/19 08:21:10;;;;;;;83.68;79.95;;;;;;;20.86;49.45;100905.84;4973095;28;20026;-78
2023/09/19 08:23:38;;;;;;;86.82;82.60;;;;;;;20.86;49.22;100912.13;4969217;28;20035;-75
2023/09/19 08:26:07;;;;;;;84.05;80.00;;;;;;;20.87;49.44;100907.50;4967539;28;20035;-80
2023/09/19 08:28:33;;;;;;;87.85;83.35;;;;;;;20.87;49.49;100915.72;4967769;28;20046;-76
2023/09/19 08:31:06;;;;;;;82.82;78.95;;;;;;;20.87;49.34;100912.97;4969170;28;20039;-74
2023/09/19 08:33:35;;;;;;;85.15;80.97;;;;;;;20.88;49.57;100904.41;4952474;28;20041;-75
2023/09/19 08:36:04;;;;;;;83.15;79.05;;;;;;;20.89;49.44;100896.97;4971977;28;20035;-75
2023/09/19 08:38:32;;;;;;;85.88;81.97;;;;;;;20.89;49.57;100911.56;4968095;28;20066;-76
2023/09/19 08:40:59;;;;;;;;;;;;;;;20.83;49.74;100901.78;4972470;28;20034;-74
2023/09/19 08:43:25;;;;;;;82.32;78.32;;;;;;;20.87;49.58;100891.00;4967982;28;20126;-77
2023/09/19 08:46:14;;;;;;;85.13;81.25;;;;;;;20.86;49.30;100906.66;4969174;28;20078;-74
2023/09/19 08:48:54;;;;;;;81.97;78.13;;;;;;;20.87;49.51;100911.03;4961939;28;20039;-79
2023/09/19 08:51:30;;;;;;;81.85;78.20;;;;;;;20.87;49.25;100908.28;4958272;28;20041;-77
2023/09/19 08:54:06;;;;;;;82.68;78.70;;;;;;;20.88;49.67;100909.91;4971901;28;20122;-76
2023/09/19 08:56:33;;;;;;;85.30;80.65;;;;;;;20.89;49.71;100908.81;4969942;28;20115;-80
2023/09/19 08:59:12;;;;;;;84.80;80.75;;;;;;;20.91;49.29;100911.22;4968206;28;20042;-80
2023/09/19 09:01:41;;;;;;;84.32;80.35;;;;;;;20.92;49.15;100913.66;4969827;28;20062;-74
2023/09/19 09:04:09;;;;;;;81.30;77.57;;;;;;;20.93;49.13;100915.28;4958772;28;20498;-77
2023/09/19 09:06:35;;;;;;;84.30;80.33;;;;;;;20.95;49.33;100909.50;4961059;28;20042;-75
2023/09/19 09:09:03;;;;;;;83.18;79.35;;;;;;;20.96;49.49;100916.59;4965016;28;20043;-76
2023/09/19 09:11:28;;;;;;;86.72;82.57;;;;;;;20.99;49.69;100913.25;4961292;28;20065;-74
2023/09/19 09:13:54;;;;;;;84.53;80.53;;;;;;;20.99;49.43;100913.25;4968208;28;20062;-74
2023/09/19 09:16:19;;;;;;;86.03;81.10;;;;;;;21.01;49.12;100912.94;4951206;28;20042;-76
2023/09/19 09:18:46;;;;;;;83.50;79.50;;;;;;;21.01;49.70;100913.75;4956711;28;20043;-77
2023/09/19 09:21:13;;;;;;;86.85;82.95;;;;;;;21.03;49.64;100902.47;4970344;28;20034;-76
2023/09/19 09:23:39;;;;;;;88.45;84.07;;;;;;;21.03;49.54;100903.25;4970653;28;20034;-75
2023/09/19 09:26:06;;;;;;;87.95;83.40;;;;;;;21.06;49.49;100899.09;4968169;28;20069;-77
2023/09/19 09:28:33;;;;;;;85.32;81.35;;;;;;;21.07;49.43;100901.53;4971914;28;20124;-77
2023/09/19 09:31:02;;;;;;;88.10;84.10;;;;;;;21.09;49.33;100884.72;4965290;28;20139;-75
2023/09/19 09:33:28;;;;;;;87.47;83.38;;;;;;;21.10;49.73;100880.88;4964120;28;20062;-75
2023/09/19 09:35:58;;;;;;;87.97;83.88;;;;;;;21.10;49.85;100887.19;4957156;28;20106;-77
2023/09/19 09:38:33;;;;;;;89.97;85.75;;;;;;;21.13;49.79;100880.25;4968467;28;20034;-77
2023/09/19 09:41:06;;;;;;;88.07;83.95;;;;;;;21.15;49.66;100878.00;4971499;28;20034;-76
2023/09/19 09:43:38;;;;;;;87.03;82.80;;;;;;;21.16;49.50;100888.66;4952389;28;20031;-78
2023/09/19 09:49:15;;;;;;;88.50;84.00;;;;;;;21.18;49.61;100889.19;4963361;28;20112;-77
2023/09/19 09:51:43;;;;;;;88.18;83.63;;;;;;;21.21;49.57;100879.50;4951739;28;20054;-77
2023/09/19 09:54:21;;;;;;;88.35;84.07;;;;;;;21.22;49.65;100883.88;4953065;28;20031;-76
2023/09/19 09:56:54;;;;;;;87.57;83.47;;;;;;;21.24;49.94;100881.63;4955524;28;20026;-75
2023/09/19 09:59:23;;;;;;;86.72;82.63;;;;;;;21.27;49.87;100888.44;4970206;28;20114;-79
2023/09/19 10:01:50;;;;;;;89.43;85.25;;;;;;;21.30;49.68;100887.81;4968246;28;20372;-80
2023/09/19 10:04:49;;;;;;;88.85;84.80;;;;;;;21.30;49.97;100887.81;4957271;28;20331;-74
2023/09/19 10:07:26;;;;;;;86.10;82.22;;;;;;;21.33;50.23;100895.44;4956167;28;20073;-76
2023/09/19 10:09:52;;;;;;;87.57;83.38;;;;;;;21.36;50.34;100886.56;4964049;28;20034;-76
2023/09/19 10:12:19;;;;;;;86.68;82.45;;;;;;;21.38;49.88;100896.16;4961549;28;20035;-77
2023/09/19 10:14:47;;;;;;;88.43;84.50;;;;;;;21.41;50.20;100891.97;4949460;28;20027;-79
2023/09/19 10:17:15;;;;;;;87.13;83.13;;;;;;;21.44;50.14;100890.53;4969909;28;20359;-78
2023/09/19 10:19:46;;;;;;;89.13;84.85;;;;;;;21.46;50.29;100888.28;4969493;28;20035;-75
2023/09/19 10:22:14;;;;;;;91.35;87.35;;;;;;;21.48;49.82;100903.34;4959196;28;20082;-79
2023/09/19 10:24:41;;;;;;;88.85;84.65;;;;;;;21.50;50.25;100879.13;4969193;28;20493;-80
2023/09/19 10:27:10;;;;;;;89.43;85.38;;;;;;;21.54;50.07;100882.03;4953080;28;20054;-81
2023/09/19 10:29:39;;;;;;;88.95;84.65;;;;;;;21.55;49.76;100879.00;4963135;28;20112;-79
2023/09/19 10:32:06;;;;;;;89.68;84.80;;;;;;;21.57;49.92;100881.41;4956463;28;20038;-80
2023/09/19 10:34:35;;;;;;;88.82;84.82;;;;;;;21.59;49.98;100871.72;4966551;28;20035;-78
2023/09/19 10:37:05;;;;;;;89.97;86.03;;;;;;;21.63;49.91;100887.59;4965915;28;20067;-79
2023/09/19 10:39:32;;;;;;;90.93;86.82;;;;;;;21.64;49.88;100862.53;4962457;28;20036;-80
2023/09/19 10:42:05;;;;;;;91.72;87.40;;;;;;;21.66;49.90;100876.78;4968780;28;20062;-80
2023/09/19 10:44:32;;;;;;;91.55;87.35;;;;;;;21.69;49.94;100870.66;4969100;28;20121;-76
2023/09/19 10:46:58;;;;;;;91.35;87.25;;;;;;;21.70;50.32;100861.28;4962103;28;20082;-74
2023/09/19 10:49:24;;;;;;;92.72;87.55;;;;;;;21.72;50.08;100863.72;4962551;28;20062;-78
2023/09/19 10:51:57;;;;;;;88.07;83.70;;;;;;;21.75;50.21;100852.09;4963695;28;20474;-77
2023/09/19 10:54:26;;;;;;;89.93;85.25;;;;;;;21.77;50.39;100855.31;4960998;28;20478;-78
2023/09/19 10:56:53;;;;;;;86.60;82.50;;;;;;;21.78;49.93;100838.53;4966888;28;20374;-78
2023/09/19 10:59:21;;;;;;;87.70;83.40;;;;;;;21.81;50.14;100840.63;4963781;28;20043;-77
2023/09/19 11:01:57;;;;;;;91.13;86.80;;;;;;;21.82;50.02;100841.44;4959987;28;20062;-80
2023/09/19 11:04:31;;;;;;;88.07;83.90;;;;;;;21.84;50.25;100841.94;4955092;28;20576;-76
2023/09/19 11:07:11;;;;;;;90.32;86.22;;;;;;;21.87;50.16;100846.00;4961009;28;20031;-77
2023/09/19 11:09:48;;;;;;;89.22;85.25;;;;;;;21.86;50.31;100836.94;4960605;28;20031;-77
2023/09/19 11:12:29;;;;;;;87.03;82.93;;;;;;;21.88;50.20;100837.44;4956594;28;20057;-77
2023/09/19 11:14:55;;;;;;;91.00;86.88;;;;;;;21.91;49.96;100836.00;4962902;28;20033;-77
2023/09/19 11:17:21;;;;;;;90.35;86.35;;;;;;;21.94;50.05;100827.91;4973728;28;20121;-77
2023/09/19 11:20:15;;;;;;;91.50;87.15;;;;;;;21.94;49.99;100833.41;4970585;28;20028;-76
2023/09/19 11:22:48;;;;;;;88.32;84.43;;;;;;;21.97;50.01;100824.56;4984933;28;20034;-79